sensor_id;sensor_type;location;lat;lon;timestamp;P1;durP1;ratioP1;P2;durP2;ratioP2
18072;SDS011;9161;47.348;9.648;2022-10-16T00:03:40;2.77;;;1.30;;
18072;SDS011;9161;47.348;9.648;2022-10-16T00:08:26;4.93;;;1.20;;
18072;SDS011;9161;47.348;9.648;2022-10-16T00:13:09;3.90;;;1.03;;
18072;SDS011;9161;47.348;9.648;2022-10-16T00:17:53;2.80;;;1.10;;
18072;SDS011;9161;47.348;9.648;2022-10-16T00:22:36;3.67;;;1.10;;
18072;SDS011;9161;47.348;9.648;2022-10-16T00:27:21;3.70;;;1.57;;
18072;SDS011;9161;47.348;9.648;2022-10-16T00:32:05;2.90;;;1.00;;
18072;SDS011;9161;47.348;9.648;2022-10-16T00:36:49;4.63;;;1.37;;
18072;SDS011;9161;47.348;9.648;2022-10-16T00:41:32;3.20;;;2.30;;
18072;SDS011;9161;47.348;9.648;2022-10-16T00:46:18;2.50;;;1.17;;
18072;SDS011;9161;47.348;9.648;2022-10-16T00:51:03;6.67;;;1.60;;
18072;SDS011;9161;47.348;9.648;2022-10-16T00:55:48;3.30;;;1.30;;
18072;SDS011;9161;47.348;9.648;2022-10-16T01:00:31;4.20;;;1.70;;
18072;SDS011;9161;47.348;9.648;2022-10-16T01:05:16;4.87;;;1.97;;
18072;SDS011;9161;47.348;9.648;2022-10-16T01:10:03;5.67;;;1.70;;
18072;SDS011;9161;47.348;9.648;2022-10-16T01:14:53;4.43;;;1.47;;
18072;SDS011;9161;47.348;9.648;2022-10-16T01:19:47;3.77;;;1.80;;
18072;SDS011;9161;47.348;9.648;2022-10-16T01:24:45;6.33;;;1.93;;
18072;SDS011;9161;47.348;9.648;2022-10-16T01:29:34;4.83;;;1.20;;
18072;SDS011;9161;47.348;9.648;2022-10-16T01:34:23;4.23;;;1.50;;
18072;SDS011;9161;47.348;9.648;2022-10-16T01:39:14;2.63;;;0.90;;
18072;SDS011;9161;47.348;9.648;2022-10-16T01:44:04;2.50;;;0.87;;
18072;SDS011;9161;47.348;9.648;2022-10-16T01:48:52;3.23;;;1.00;;
18072;SDS011;9161;47.348;9.648;2022-10-16T01:53:37;2.20;;;0.80;;
18072;SDS011;9161;47.348;9.648;2022-10-16T01:58:22;3.90;;;0.93;;
18072;SDS011;9161;47.348;9.648;2022-10-16T02:03:12;3.13;;;0.60;;
18072;SDS011;9161;47.348;9.648;2022-10-16T02:07:59;1.13;;;0.67;;
18072;SDS011;9161;47.348;9.648;2022-10-16T02:12:47;3.47;;;0.80;;
18072;SDS011;9161;47.348;9.648;2022-10-16T02:17:33;3.33;;;0.90;;
18072;SDS011;9161;47.348;9.648;2022-10-16T02:22:18;2.37;;;0.97;;
18072;SDS011;9161;47.348;9.648;2022-10-16T02:27:09;1.53;;;1.00;;
18072;SDS011;9161;47.348;9.648;2022-10-16T02:31:55;3.27;;;1.00;;
18072;SDS011;9161;47.348;9.648;2022-10-16T02:36:41;3.30;;;1.30;;
18072;SDS011;9161;47.348;9.648;2022-10-16T02:41:27;2.37;;;1.77;;
18072;SDS011;9161;47.348;9.648;2022-10-16T02:46:12;3.50;;;1.47;;
18072;SDS011;9161;47.348;9.648;2022-10-16T02:50:55;7.93;;;1.33;;
18072;SDS011;9161;47.348;9.648;2022-10-16T02:55:39;3.43;;;1.30;;
18072;SDS011;9161;47.348;9.648;2022-10-16T03:00:22;2.63;;;1.20;;
18072;SDS011;9161;47.348;9.648;2022-10-16T03:05:08;9.93;;;1.40;;
18072;SDS011;9161;47.348;9.648;2022-10-16T03:09:52;1.50;;;1.13;;
18072;SDS011;9161;47.348;9.648;2022-10-16T03:14:36;11.07;;;1.97;;
18072;SDS011;9161;47.348;9.648;2022-10-16T03:19:21;4.13;;;1.40;;
18072;SDS011;9161;47.348;9.648;2022-10-16T03:24:06;5.93;;;1.37;;
18072;SDS011;9161;47.348;9.648;2022-10-16T03:28:49;4.47;;;1.50;;
18072;SDS011;9161;47.348;9.648;2022-10-16T03:33:33;4.57;;;1.30;;
18072;SDS011;9161;47.348;9.648;2022-10-16T03:38:17;5.23;;;1.53;;
18072;SDS011;9161;47.348;9.648;2022-10-16T03:43:02;3.97;;;1.30;;
18072;SDS011;9161;47.348;9.648;2022-10-16T03:47:45;2.47;;;1.07;;
18072;SDS011;9161;47.348;9.648;2022-10-16T03:52:29;3.00;;;1.20;;
18072;SDS011;9161;47.348;9.648;2022-10-16T03:57:13;6.20;;;1.20;;
18072;SDS011;9161;47.348;9.648;2022-10-16T04:01:58;4.27;;;0.90;;
18072;SDS011;9161;47.348;9.648;2022-10-16T04:06:41;5.87;;;1.23;;
18072;SDS011;9161;47.348;9.648;2022-10-16T04:11:25;1.20;;;0.73;;
18072;SDS011;9161;47.348;9.648;2022-10-16T04:16:09;14.03;;;0.93;;
18072;SDS011;9161;47.348;9.648;2022-10-16T04:20:53;3.40;;;0.80;;
18072;SDS011;9161;47.348;9.648;2022-10-16T04:25:37;5.57;;;0.90;;
18072;SDS011;9161;47.348;9.648;2022-10-16T04:30:21;6.90;;;1.60;;
18072;SDS011;9161;47.348;9.648;2022-10-16T04:35:06;1.60;;;0.90;;
18072;SDS011;9161;47.348;9.648;2022-10-16T04:39:52;1.47;;;1.10;;
18072;SDS011;9161;47.348;9.648;2022-10-16T04:44:36;2.67;;;1.10;;
18072;SDS011;9161;47.348;9.648;2022-10-16T04:49:19;6.10;;;1.00;;
18072;SDS011;9161;47.348;9.648;2022-10-16T04:54:03;1.33;;;1.10;;
18072;SDS011;9161;47.348;9.648;2022-10-16T04:58:48;1.30;;;0.80;;
18072;SDS011;9161;47.348;9.648;2022-10-16T05:03:34;4.10;;;1.20;;
18072;SDS011;9161;47.348;9.648;2022-10-16T05:08:18;1.47;;;1.07;;
18072;SDS011;9161;47.348;9.648;2022-10-16T05:13:01;2.73;;;1.00;;
18072;SDS011;9161;47.348;9.648;2022-10-16T05:17:46;3.27;;;1.30;;
18072;SDS011;9161;47.348;9.648;2022-10-16T05:22:30;3.33;;;1.30;;
18072;SDS011;9161;47.348;9.648;2022-10-16T05:27:13;6.17;;;1.50;;
18072;SDS011;9161;47.348;9.648;2022-10-16T05:32:00;6.40;;;1.70;;
18072;SDS011;9161;47.348;9.648;2022-10-16T05:36:45;6.43;;;1.33;;
18072;SDS011;9161;47.348;9.648;2022-10-16T05:41:28;7.10;;;1.60;;
18072;SDS011;9161;47.348;9.648;2022-10-16T05:46:13;6.80;;;2.13;;
18072;SDS011;9161;47.348;9.648;2022-10-16T05:50:57;7.97;;;1.80;;
18072;SDS011;9161;47.348;9.648;2022-10-16T05:55:43;5.87;;;1.37;;
18072;SDS011;9161;47.348;9.648;2022-10-16T06:00:34;2.53;;;1.33;;
18072;SDS011;9161;47.348;9.648;2022-10-16T06:05:17;2.73;;;1.20;;
18072;SDS011;9161;47.348;9.648;2022-10-16T06:10:01;3.30;;;0.97;;
18072;SDS011;9161;47.348;9.648;2022-10-16T06:14:47;2.70;;;0.97;;
18072;SDS011;9161;47.348;9.648;2022-10-16T06:19:31;1.47;;;0.87;;
18072;SDS011;9161;47.348;9.648;2022-10-16T06:24:14;4.40;;;0.90;;
18072;SDS011;9161;47.348;9.648;2022-10-16T06:28:58;2.40;;;1.57;;
18072;SDS011;9161;47.348;9.648;2022-10-16T06:33:45;3.23;;;1.50;;
18072;SDS011;9161;47.348;9.648;2022-10-16T06:38:43;3.63;;;1.50;;
18072;SDS011;9161;47.348;9.648;2022-10-16T06:43:28;4.40;;;1.10;;
18072;SDS011;9161;47.348;9.648;2022-10-16T06:48:13;6.40;;;1.43;;
18072;SDS011;9161;47.348;9.648;2022-10-16T06:52:58;3.57;;;1.30;;
18072;SDS011;9161;47.348;9.648;2022-10-16T06:57:42;3.23;;;1.50;;
18072;SDS011;9161;47.348;9.648;2022-10-16T07:02:26;3.77;;;1.60;;
18072;SDS011;9161;47.348;9.648;2022-10-16T07:07:10;4.50;;;1.63;;
18072;SDS011;9161;47.348;9.648;2022-10-16T07:11:55;6.87;;;2.77;;
18072;SDS011;9161;47.348;9.648;2022-10-16T07:16:38;10.60;;;1.50;;
18072;SDS011;9161;47.348;9.648;2022-10-16T07:21:28;2.70;;;1.10;;
18072;SDS011;9161;47.348;9.648;2022-10-16T07:26:25;6.53;;;0.83;;
18072;SDS011;9161;47.348;9.648;2022-10-16T07:31:13;4.03;;;0.60;;
18072;SDS011;9161;47.348;9.648;2022-10-16T07:35:57;3.10;;;0.90;;
18072;SDS011;9161;47.348;9.648;2022-10-16T07:40:41;2.70;;;0.90;;
18072;SDS011;9161;47.348;9.648;2022-10-16T07:45:24;4.35;;;1.60;;
18072;SDS011;9161;47.348;9.648;2022-10-16T07:50:09;5.07;;;1.20;;
18072;SDS011;9161;47.348;9.648;2022-10-16T07:54:53;4.15;;;1.10;;
18072;SDS011;9161;47.348;9.648;2022-10-16T07:59:36;5.63;;;1.13;;
18072;SDS011;9161;47.348;9.648;2022-10-16T08:04:20;4.35;;;1.10;;
18072;SDS011;9161;47.348;9.648;2022-10-16T08:09:05;1.92;;;1.10;;
18072;SDS011;9161;47.348;9.648;2022-10-16T08:13:49;4.88;;;0.90;;
18072;SDS011;9161;47.348;9.648;2022-10-16T08:18:32;2.03;;;0.70;;
18072;SDS011;9161;47.348;9.648;2022-10-16T08:23:17;13.82;;;1.05;;
18072;SDS011;9161;47.348;9.648;2022-10-16T08:28:02;4.13;;;1.87;;
18072;SDS011;9161;47.348;9.648;2022-10-16T08:32:47;3.57;;;1.03;;
18072;SDS011;9161;47.348;9.648;2022-10-16T08:37:31;2.13;;;1.07;;
18072;SDS011;9161;47.348;9.648;2022-10-16T08:42:17;3.22;;;1.13;;
18072;SDS011;9161;47.348;9.648;2022-10-16T08:47:12;2.28;;;1.13;;
18072;SDS011;9161;47.348;9.648;2022-10-16T08:52:00;5.30;;;0.95;;
18072;SDS011;9161;47.348;9.648;2022-10-16T08:56:43;2.35;;;0.70;;
18072;SDS011;9161;47.348;9.648;2022-10-16T09:01:32;1.38;;;0.52;;
18072;SDS011;9161;47.348;9.648;2022-10-16T09:11:30;3.03;;;0.60;;
18072;SDS011;9161;47.348;9.648;2022-10-16T09:16:22;2.47;;;0.75;;
18072;SDS011;9161;47.348;9.648;2022-10-16T09:21:13;1.05;;;0.70;;
18072;SDS011;9161;47.348;9.648;2022-10-16T09:26:02;3.28;;;0.70;;
18072;SDS011;9161;47.348;9.648;2022-10-16T09:30:47;3.38;;;0.70;;
18072;SDS011;9161;47.348;9.648;2022-10-16T09:35:31;2.83;;;1.00;;
18072;SDS011;9161;47.348;9.648;2022-10-16T09:40:25;2.45;;;1.00;;
18072;SDS011;9161;47.348;9.648;2022-10-16T09:45:21;2.08;;;0.80;;
18072;SDS011;9161;47.348;9.648;2022-10-16T09:50:20;3.70;;;0.90;;
18072;SDS011;9161;47.348;9.648;2022-10-16T09:55:12;3.88;;;0.80;;
18072;SDS011;9161;47.348;9.648;2022-10-16T09:59:57;4.00;;;0.88;;
18072;SDS011;9161;47.348;9.648;2022-10-16T10:04:44;3.10;;;0.70;;
18072;SDS011;9161;47.348;9.648;2022-10-16T10:09:37;1.83;;;0.70;;
18072;SDS011;9161;47.348;9.648;2022-10-16T10:14:26;0.90;;;0.60;;
18072;SDS011;9161;47.348;9.648;2022-10-16T10:19:15;3.45;;;0.80;;
18072;SDS011;9161;47.348;9.648;2022-10-16T10:24:01;3.80;;;0.63;;
18072;SDS011;9161;47.348;9.648;2022-10-16T10:28:49;2.75;;;0.75;;
18072;SDS011;9161;47.348;9.648;2022-10-16T10:33:40;1.80;;;0.70;;
18072;SDS011;9161;47.348;9.648;2022-10-16T10:38:31;3.63;;;0.80;;
18072;SDS011;9161;47.348;9.648;2022-10-16T10:43:27;3.55;;;0.90;;
18072;SDS011;9161;47.348;9.648;2022-10-16T10:48:26;3.20;;;0.80;;
18072;SDS011;9161;47.348;9.648;2022-10-16T10:53:36;0.95;;;0.60;;
18072;SDS011;9161;47.348;9.648;2022-10-16T11:09:18;2.67;;;0.60;;
18072;SDS011;9161;47.348;9.648;2022-10-16T11:14:05;1.42;;;0.70;;
18072;SDS011;9161;47.348;9.648;2022-10-16T11:18:57;2.08;;;0.90;;
18072;SDS011;9161;47.348;9.648;2022-10-16T11:23:47;2.08;;;0.60;;
18072;SDS011;9161;47.348;9.648;2022-10-16T11:28:34;3.38;;;0.70;;
18072;SDS011;9161;47.348;9.648;2022-10-16T11:33:25;2.70;;;0.70;;
18072;SDS011;9161;47.348;9.648;2022-10-16T11:38:15;1.33;;;0.90;;
18072;SDS011;9161;47.348;9.648;2022-10-16T11:43:06;2.70;;;0.80;;
18072;SDS011;9161;47.348;9.648;2022-10-16T11:47:58;1.13;;;0.70;;
18072;SDS011;9161;47.348;9.648;2022-10-16T11:52:51;4.75;;;0.75;;
18072;SDS011;9161;47.348;9.648;2022-10-16T11:57:39;1.25;;;0.80;;
18072;SDS011;9161;47.348;9.648;2022-10-16T12:02:33;1.95;;;0.70;;
18072;SDS011;9161;47.348;9.648;2022-10-16T12:07:24;3.15;;;1.00;;
18072;SDS011;9161;47.348;9.648;2022-10-16T12:12:28;1.92;;;0.85;;
18072;SDS011;9161;47.348;9.648;2022-10-16T12:17:27;1.30;;;0.73;;
18072;SDS011;9161;47.348;9.648;2022-10-16T12:22:18;1.50;;;0.88;;
18072;SDS011;9161;47.348;9.648;2022-10-16T12:27:02;2.40;;;0.77;;
18072;SDS011;9161;47.348;9.648;2022-10-16T12:31:48;2.58;;;0.73;;
18072;SDS011;9161;47.348;9.648;2022-10-16T12:36:38;2.47;;;0.80;;
18072;SDS011;9161;47.348;9.648;2022-10-16T12:41:25;1.00;;;0.70;;
18072;SDS011;9161;47.348;9.648;2022-10-16T12:46:21;2.28;;;0.90;;
18072;SDS011;9161;47.348;9.648;2022-10-16T12:51:12;1.77;;;0.88;;
18072;SDS011;9161;47.348;9.648;2022-10-16T12:56:09;2.53;;;0.90;;
18072;SDS011;9161;47.348;9.648;2022-10-16T13:01:02;2.20;;;0.80;;
18072;SDS011;9161;47.348;9.648;2022-10-16T13:05:58;1.30;;;0.77;;
18072;SDS011;9161;47.348;9.648;2022-10-16T13:10:54;4.38;;;1.00;;
18072;SDS011;9161;47.348;9.648;2022-10-16T13:20:55;3.30;;;0.98;;
18072;SDS011;9161;47.348;9.648;2022-10-16T13:25:51;2.33;;;0.85;;
18072;SDS011;9161;47.348;9.648;2022-10-16T13:30:51;2.55;;;1.10;;
18072;SDS011;9161;47.348;9.648;2022-10-16T13:35:36;3.78;;;0.90;;
18072;SDS011;9161;47.348;9.648;2022-10-16T13:40:20;2.75;;;1.00;;
18072;SDS011;9161;47.348;9.648;2022-10-16T13:45:16;3.08;;;1.10;;
18072;SDS011;9161;47.348;9.648;2022-10-16T13:50:02;1.70;;;1.10;;
18072;SDS011;9161;47.348;9.648;2022-10-16T13:54:46;3.25;;;1.10;;
18072;SDS011;9161;47.348;9.648;2022-10-16T13:59:32;3.30;;;1.00;;
18072;SDS011;9161;47.348;9.648;2022-10-16T14:04:19;2.25;;;1.05;;
18072;SDS011;9161;47.348;9.648;2022-10-16T14:09:04;2.15;;;1.10;;
18072;SDS011;9161;47.348;9.648;2022-10-16T14:13:50;2.35;;;1.10;;
18072;SDS011;9161;47.348;9.648;2022-10-16T14:18:34;2.00;;;0.98;;
18072;SDS011;9161;47.348;9.648;2022-10-16T14:23:22;2.15;;;1.25;;
18072;SDS011;9161;47.348;9.648;2022-10-16T14:28:14;2.00;;;1.27;;
18072;SDS011;9161;47.348;9.648;2022-10-16T14:33:00;1.50;;;1.00;;
18072;SDS011;9161;47.348;9.648;2022-10-16T14:37:46;3.95;;;1.73;;
18072;SDS011;9161;47.348;9.648;2022-10-16T14:42:35;2.60;;;1.52;;
18072;SDS011;9161;47.348;9.648;2022-10-16T14:47:20;8.68;;;1.48;;
18072;SDS011;9161;47.348;9.648;2022-10-16T14:52:09;3.03;;;1.25;;
18072;SDS011;9161;47.348;9.648;2022-10-16T14:56:54;2.47;;;1.30;;
18072;SDS011;9161;47.348;9.648;2022-10-16T15:01:40;3.95;;;1.20;;
18072;SDS011;9161;47.348;9.648;2022-10-16T15:06:25;5.25;;;0.98;;
18072;SDS011;9161;47.348;9.648;2022-10-16T15:11:09;9.68;;;1.40;;
18072;SDS011;9161;47.348;9.648;2022-10-16T15:15:55;2.58;;;1.10;;
18072;SDS011;9161;47.348;9.648;2022-10-16T15:20:41;2.47;;;1.15;;
18072;SDS011;9161;47.348;9.648;2022-10-16T15:25:29;2.95;;;1.30;;
18072;SDS011;9161;47.348;9.648;2022-10-16T15:30:16;4.22;;;1.67;;
18072;SDS011;9161;47.348;9.648;2022-10-16T15:34:59;3.13;;;1.50;;
18072;SDS011;9161;47.348;9.648;2022-10-16T15:39:44;3.83;;;1.33;;
18072;SDS011;9161;47.348;9.648;2022-10-16T15:44:28;3.08;;;1.63;;
18072;SDS011;9161;47.348;9.648;2022-10-16T15:49:14;7.47;;;1.67;;
18072;SDS011;9161;47.348;9.648;2022-10-16T15:53:58;4.72;;;1.40;;
18072;SDS011;9161;47.348;9.648;2022-10-16T15:58:44;4.85;;;1.90;;
18072;SDS011;9161;47.348;9.648;2022-10-16T16:03:28;3.13;;;1.50;;
18072;SDS011;9161;47.348;9.648;2022-10-16T16:08:13;3.33;;;1.90;;
18072;SDS011;9161;47.348;9.648;2022-10-16T16:12:56;9.63;;;3.33;;
18072;SDS011;9161;47.348;9.648;2022-10-16T16:17:42;11.48;;;3.60;;
18072;SDS011;9161;47.348;9.648;2022-10-16T16:22:26;7.78;;;2.42;;
18072;SDS011;9161;47.348;9.648;2022-10-16T16:27:11;8.52;;;2.20;;
18072;SDS011;9161;47.348;9.648;2022-10-16T16:31:55;5.25;;;1.60;;
18072;SDS011;9161;47.348;9.648;2022-10-16T16:36:42;5.55;;;2.10;;
18072;SDS011;9161;47.348;9.648;2022-10-16T16:41:27;8.32;;;1.92;;
18072;SDS011;9161;47.348;9.648;2022-10-16T16:46:12;4.22;;;2.10;;
18072;SDS011;9161;47.348;9.648;2022-10-16T16:50:55;7.72;;;2.65;;
18072;SDS011;9161;47.348;9.648;2022-10-16T16:55:40;8.40;;;2.85;;
18072;SDS011;9161;47.348;9.648;2022-10-16T17:00:24;8.80;;;2.30;;
18072;SDS011;9161;47.348;9.648;2022-10-16T17:05:09;5.57;;;2.50;;
18072;SDS011;9161;47.348;9.648;2022-10-16T17:09:56;9.32;;;2.50;;
18072;SDS011;9161;47.348;9.648;2022-10-16T17:14:43;8.73;;;2.88;;
18072;SDS011;9161;47.348;9.648;2022-10-16T17:19:27;6.75;;;2.78;;
18072;SDS011;9161;47.348;9.648;2022-10-16T17:24:12;7.20;;;2.40;;
18072;SDS011;9161;47.348;9.648;2022-10-16T17:28:58;10.80;;;2.95;;
18072;SDS011;9161;47.348;9.648;2022-10-16T17:33:49;4.22;;;2.50;;
18072;SDS011;9161;47.348;9.648;2022-10-16T17:38:36;10.73;;;4.50;;
18072;SDS011;9161;47.348;9.648;2022-10-16T17:43:22;13.53;;;4.73;;
18072;SDS011;9161;47.348;9.648;2022-10-16T17:48:07;14.30;;;4.17;;
18072;SDS011;9161;47.348;9.648;2022-10-16T17:52:54;8.27;;;4.37;;
18072;SDS011;9161;47.348;9.648;2022-10-16T17:57:39;7.87;;;3.47;;
18072;SDS011;9161;47.348;9.648;2022-10-16T18:02:24;9.67;;;2.90;;
18072;SDS011;9161;47.348;9.648;2022-10-16T18:07:11;7.53;;;2.83;;
18072;SDS011;9161;47.348;9.648;2022-10-16T18:11:57;13.53;;;4.13;;
18072;SDS011;9161;47.348;9.648;2022-10-16T18:16:43;13.07;;;4.63;;
18072;SDS011;9161;47.348;9.648;2022-10-16T18:21:34;13.53;;;5.10;;
18072;SDS011;9161;47.348;9.648;2022-10-16T18:26:22;14.57;;;6.63;;
18072;SDS011;9161;47.348;9.648;2022-10-16T18:31:10;12.00;;;5.17;;
18072;SDS011;9161;47.348;9.648;2022-10-16T18:35:59;7.53;;;4.60;;
18072;SDS011;9161;47.348;9.648;2022-10-16T18:40:45;10.27;;;4.60;;
18072;SDS011;9161;47.348;9.648;2022-10-16T18:45:30;10.60;;;5.53;;
18072;SDS011;9161;47.348;9.648;2022-10-16T18:50:17;15.57;;;8.20;;
18072;SDS011;9161;47.348;9.648;2022-10-16T18:55:08;16.50;;;7.13;;
18072;SDS011;9161;47.348;9.648;2022-10-16T18:59:54;13.63;;;6.70;;
18072;SDS011;9161;47.348;9.648;2022-10-16T19:04:41;16.57;;;7.17;;
18072;SDS011;9161;47.348;9.648;2022-10-16T19:09:29;18.60;;;7.77;;
18072;SDS011;9161;47.348;9.648;2022-10-16T19:14:16;24.53;;;8.57;;
18072;SDS011;9161;47.348;9.648;2022-10-16T19:19:05;18.30;;;7.60;;
18072;SDS011;9161;47.348;9.648;2022-10-16T19:23:50;9.97;;;4.87;;
18072;SDS011;9161;47.348;9.648;2022-10-16T19:28:37;16.83;;;7.70;;
18072;SDS011;9161;47.348;9.648;2022-10-16T19:33:22;15.67;;;5.17;;
18072;SDS011;9161;47.348;9.648;2022-10-16T19:38:06;13.30;;;3.77;;
18072;SDS011;9161;47.348;9.648;2022-10-16T19:42:50;12.37;;;3.60;;
18072;SDS011;9161;47.348;9.648;2022-10-16T19:47:36;7.70;;;3.33;;
18072;SDS011;9161;47.348;9.648;2022-10-16T19:52:20;10.17;;;3.10;;
18072;SDS011;9161;47.348;9.648;2022-10-16T19:57:05;7.40;;;3.10;;
18072;SDS011;9161;47.348;9.648;2022-10-16T20:01:50;9.60;;;3.87;;
18072;SDS011;9161;47.348;9.648;2022-10-16T20:06:35;12.47;;;3.57;;
18072;SDS011;9161;47.348;9.648;2022-10-16T20:11:20;7.53;;;3.47;;
18072;SDS011;9161;47.348;9.648;2022-10-16T20:16:06;9.77;;;3.40;;
18072;SDS011;9161;47.348;9.648;2022-10-16T20:20:50;8.40;;;3.40;;
18072;SDS011;9161;47.348;9.648;2022-10-16T20:25:35;10.70;;;4.23;;
18072;SDS011;9161;47.348;9.648;2022-10-16T20:30:20;11.70;;;4.07;;
18072;SDS011;9161;47.348;9.648;2022-10-16T20:35:04;21.20;;;5.27;;
18072;SDS011;9161;47.348;9.648;2022-10-16T20:39:48;10.57;;;4.00;;
18072;SDS011;9161;47.348;9.648;2022-10-16T20:44:33;10.43;;;4.43;;
18072;SDS011;9161;47.348;9.648;2022-10-16T20:49:17;10.70;;;3.50;;
18072;SDS011;9161;47.348;9.648;2022-10-16T20:54:20;6.40;;;3.37;;
18072;SDS011;9161;47.348;9.648;2022-10-16T20:59:03;3.83;;;2.70;;
18072;SDS011;9161;47.348;9.648;2022-10-16T21:03:50;7.07;;;2.97;;
18072;SDS011;9161;47.348;9.648;2022-10-16T21:08:35;7.43;;;2.30;;
18072;SDS011;9161;47.348;9.648;2022-10-16T21:13:19;6.30;;;2.57;;
18072;SDS011;9161;47.348;9.648;2022-10-16T21:18:06;8.63;;;2.30;;
18072;SDS011;9161;47.348;9.648;2022-10-16T21:22:51;4.03;;;2.50;;
18072;SDS011;9161;47.348;9.648;2022-10-16T21:27:35;9.77;;;3.53;;
18072;SDS011;9161;47.348;9.648;2022-10-16T21:32:19;8.03;;;2.43;;
18072;SDS011;9161;47.348;9.648;2022-10-16T21:37:03;7.67;;;2.57;;
18072;SDS011;9161;47.348;9.648;2022-10-16T21:41:48;6.27;;;2.70;;
18072;SDS011;9161;47.348;9.648;2022-10-16T21:46:33;5.03;;;3.03;;
18072;SDS011;9161;47.348;9.648;2022-10-16T21:51:17;6.80;;;2.60;;
18072;SDS011;9161;47.348;9.648;2022-10-16T21:56:01;7.53;;;2.40;;
18072;SDS011;9161;47.348;9.648;2022-10-16T22:00:46;8.63;;;2.83;;
18072;SDS011;9161;47.348;9.648;2022-10-16T22:05:32;6.20;;;2.40;;
18072;SDS011;9161;47.348;9.648;2022-10-16T22:10:15;8.37;;;3.20;;
18072;SDS011;9161;47.348;9.648;2022-10-16T22:14:59;6.40;;;2.50;;
18072;SDS011;9161;47.348;9.648;2022-10-16T22:19:44;5.93;;;2.90;;
18072;SDS011;9161;47.348;9.648;2022-10-16T22:24:27;6.03;;;2.97;;
18072;SDS011;9161;47.348;9.648;2022-10-16T22:29:14;12.03;;;3.70;;
18072;SDS011;9161;47.348;9.648;2022-10-16T22:33:59;10.50;;;4.60;;
18072;SDS011;9161;47.348;9.648;2022-10-16T22:38:44;7.90;;;4.00;;
18072;SDS011;9161;47.348;9.648;2022-10-16T22:43:28;11.17;;;3.30;;
18072;SDS011;9161;47.348;9.648;2022-10-16T22:48:11;7.67;;;4.03;;
18072;SDS011;9161;47.348;9.648;2022-10-16T22:52:55;9.23;;;4.30;;
18072;SDS011;9161;47.348;9.648;2022-10-16T22:57:40;11.77;;;4.30;;
18072;SDS011;9161;47.348;9.648;2022-10-16T23:02:24;7.87;;;3.90;;
18072;SDS011;9161;47.348;9.648;2022-10-16T23:07:08;8.70;;;3.57;;
18072;SDS011;9161;47.348;9.648;2022-10-16T23:11:51;8.47;;;4.00;;
18072;SDS011;9161;47.348;9.648;2022-10-16T23:16:36;13.13;;;4.00;;
18072;SDS011;9161;47.348;9.648;2022-10-16T23:21:20;8.80;;;4.03;;
18072;SDS011;9161;47.348;9.648;2022-10-16T23:26:07;6.03;;;3.20;;
18072;SDS011;9161;47.348;9.648;2022-10-16T23:30:52;8.13;;;3.27;;
18072;SDS011;9161;47.348;9.648;2022-10-16T23:35:39;9.03;;;2.70;;
18072;SDS011;9161;47.348;9.648;2022-10-16T23:40:23;4.53;;;2.93;;
18072;SDS011;9161;47.348;9.648;2022-10-16T23:45:06;4.87;;;2.93;;
18072;SDS011;9161;47.348;9.648;2022-10-16T23:49:50;8.17;;;2.90;;
18072;SDS011;9161;47.348;9.648;2022-10-16T23:54:35;8.10;;;2.60;;
18072;SDS011;9161;47.348;9.648;2022-10-16T23:59:19;7.23;;;2.43;;
